PWSweather.com
Personal Weather Stations
Station Observations
KNVELKO7
Elko, NV 89801

Elko, NV 89801

Lat: 40.963233, Lon: -115.592836

Elevation: 5230

Station Type: WS-2812

Latest ConditionsUpdated 4:41:37 PM PDT Tuesday, Sep 2, 2014
Currently Today's Max Today's Min Today's Average
Temperature 88.9°F31.6°C 90.2°F32.3°C 40.0°F4.4°C 63.4°F17.4°C
Dew Point 34.1°F1.2°C 50.1°F10.1°C 26.6°F-3.0°C 37.1°F2.8°C
Winds 9.9 mph WSW15.9 kmh WSW 16.5 mph WSW26.6 kmh WSW - 3.7 mph 6.0 kmh
Wind Gusts 13.2 mph21.2 kmh 19.5 mph31.4 kmh - -
Humidity 15% 66% 15% 42%
Pressure 29.90 in1012.5 mb 30.08 in1018.6 mb 29.90 in1012.5 mb -
Hour Temp Dew Point Humidity Winds Wind Gusts Pressure Precip Precip Rate Daily Precip Total
04:41 PM 88.9°F31.6°C 34.1°F1.2°C 15% 9.9 mph WSW15.9 kmh WSW 13.2 mph21.2 kmh 29.90 in1012.5 mb 0.00 in0.0 mm 0.00 in/hr0.0 mm/hr 0.00 in0.0 mm
04:36 PM 89.1°F31.7°C 37.7°F3.2°C 17% 8.8 mph SW14.2 kmh SW 13.2 mph21.2 kmh 29.90 in1012.5 mb 0.00 in0.0 mm 0.00 in/hr0.0 mm/hr 0.00 in0.0 mm
04:31 PM 89.8°F32.1°C 40.1°F4.5°C 18% 12.3 mph SW19.8 kmh SW 12.5 mph20.1 kmh 29.90 in1012.5 mb 0.00 in0.0 mm 0.00 in/hr0.0 mm/hr 0.00 in0.0 mm
04:26 PM 89.5°F31.9°C 39.8°F4.3°C 18% 1.3 mph SSE2.1 kmh SSE 13.0 mph20.9 kmh 29.90 in1012.5 mb 0.00 in0.0 mm 0.00 in/hr0.0 mm/hr 0.00 in0.0 mm
04:21 PM 89.3°F31.8°C 39.6°F4.2°C 18% 8.8 mph SW14.2 kmh SW 13.0 mph20.9 kmh 29.91 in1012.9 mb 0.00 in0.0 mm 0.00 in/hr0.0 mm/hr 0.00 in0.0 mm
04:16 PM 89.6°F32.0°C 39.9°F4.4°C 18% 8.7 mph SW14.0 kmh SW 10.5 mph16.9 kmh 29.91 in1012.9 mb 0.00 in0.0 mm 0.00 in/hr0.0 mm/hr 0.00 in0.0 mm
04:11 PM 90.0°F32.2°C 42.0°F5.6°C 19% 5.9 mph SW9.5 kmh SW 9.6 mph15.4 kmh 29.91 in1012.9 mb 0.00 in0.0 mm 0.00 in/hr0.0 mm/hr 0.00 in0.0 mm
04:07 PM 90.2°F32.3°C 43.8°F6.6°C 20% 6.6 mph SW10.6 kmh SW 9.6 mph15.4 kmh 29.91 in1012.9 mb 0.00 in0.0 mm 0.00 in/hr0.0 mm/hr 0.00 in0.0 mm
04:02 PM 90.0°F32.2°C 42.0°F5.6°C 19% 8.1 mph SSW13.0 kmh SSW 10.5 mph16.9 kmh 29.92 in1013.2 mb 0.00 in0.0 mm 0.00 in/hr0.0 mm/hr 0.00 in0.0 mm
03:56 PM 89.8°F32.1°C 41.8°F5.4°C 19% 9.3 mph S15.0 kmh S 10.7 mph17.2 kmh 29.91 in1012.9 mb 0.00 in0.0 mm 0.00 in/hr0.0 mm/hr 0.00 in0.0 mm
03:51 PM 89.6°F32.0°C 41.7°F5.4°C 19% 7.6 mph S12.2 kmh S 10.7 mph17.2 kmh 29.92 in1013.2 mb 0.00 in0.0 mm 0.00 in/hr0.0 mm/hr 0.00 in0.0 mm
03:46 PM 89.5°F31.9°C 41.5°F5.3°C 19% 3.5 mph SSW5.6 kmh SSW 10.7 mph17.2 kmh 29.92 in1013.2 mb 0.00 in0.0 mm 0.00 in/hr0.0 mm/hr 0.00 in0.0 mm
03:41 PM 89.1°F31.7°C 42.9°F6.1°C 20% 4.1 mph SW6.6 kmh SW 10.7 mph17.2 kmh 29.92 in1013.2 mb 0.00 in0.0 mm 0.00 in/hr0.0 mm/hr 0.00 in0.0 mm
03:36 PM 88.9°F31.6°C 41.0°F5.0°C 19% 8.1 mph SSW13.0 kmh SSW 10.5 mph16.9 kmh 29.92 in1013.2 mb 0.00 in0.0 mm 0.00 in/hr0.0 mm/hr 0.00 in0.0 mm
03:31 PM 88.6°F31.4°C 39.1°F3.9°C 18% 4.3 mph SW6.9 kmh SW 18.1 mph29.1 kmh 29.93 in1013.5 mb 0.00 in0.0 mm 0.00 in/hr0.0 mm/hr 0.00 in0.0 mm
03:26 PM 88.4°F31.3°C 37.2°F2.9°C 17% 16.5 mph WSW26.6 kmh WSW 18.1 mph29.1 kmh 29.93 in1013.5 mb 0.00 in0.0 mm 0.00 in/hr0.0 mm/hr 0.00 in0.0 mm
03:21 PM 88.2°F31.2°C 38.8°F3.8°C 18% 5.3 mph SW8.5 kmh SW 14.3 mph23.0 kmh 29.93 in1013.5 mb 0.00 in0.0 mm 0.00 in/hr0.0 mm/hr 0.00 in0.0 mm
03:16 PM 88.2°F31.2°C 38.8°F3.8°C 18% 7.8 mph SW12.6 kmh SW 16.8 mph27.0 kmh 29.94 in1013.9 mb 0.00 in0.0 mm 0.00 in/hr0.0 mm/hr 0.00 in0.0 mm
03:11 PM 88.2°F31.2°C 35.3°F1.8°C 16% 14.4 mph WSW23.2 kmh WSW 16.8 mph27.0 kmh 29.94 in1013.9 mb 0.00 in0.0 mm 0.00 in/hr0.0 mm/hr 0.00 in0.0 mm
03:06 PM 88.4°F31.3°C 38.9°F3.8°C 18% 9.3 mph WSW15.0 kmh WSW 13.0 mph20.9 kmh 29.94 in1013.9 mb 0.00 in0.0 mm 0.00 in/hr0.0 mm/hr 0.00 in0.0 mm
03:01 PM 88.4°F31.3°C 38.9°F3.8°C 18% 11.6 mph WSW18.7 kmh WSW 13.0 mph20.9 kmh 29.94 in1013.9 mb 0.00 in0.0 mm 0.00 in/hr0.0 mm/hr 0.00 in0.0 mm
02:56 PM 88.2°F31.2°C 42.2°F5.7°C 20% 11.4 mph SW18.3 kmh SW 15.2 mph24.5 kmh 29.94 in1013.9 mb 0.00 in0.0 mm 0.00 in/hr0.0 mm/hr 0.00 in0.0 mm
02:51 PM 88.0°F31.1°C 40.3°F4.6°C 19% 10.0 mph SW16.1 kmh SW 16.3 mph26.2 kmh 29.94 in1013.9 mb 0.00 in0.0 mm 0.00 in/hr0.0 mm/hr 0.00 in0.0 mm
02:46 PM 87.8°F31.0°C 40.2°F4.6°C 19% 12.6 mph SW20.3 kmh SW 16.3 mph26.2 kmh 29.95 in1014.2 mb 0.00 in0.0 mm 0.00 in/hr0.0 mm/hr 0.00 in0.0 mm
02:41 PM 87.5°F30.8°C 39.9°F4.4°C 19% 12.0 mph SW19.3 kmh SW 14.8 mph23.8 kmh 29.95 in1014.2 mb 0.00 in0.0 mm 0.00 in/hr0.0 mm/hr 0.00 in0.0 mm
02:36 PM 87.7°F30.9°C 40.1°F4.5°C 19% 10.1 mph WSW16.3 kmh WSW 17.4 mph28.0 kmh 29.95 in1014.2 mb 0.00 in0.0 mm 0.00 in/hr0.0 mm/hr 0.00 in0.0 mm
02:31 PM 87.8°F31.0°C 40.2°F4.6°C 19% 15.6 mph SW25.1 kmh SW 17.4 mph28.0 kmh 29.96 in1014.6 mb 0.00 in0.0 mm 0.00 in/hr0.0 mm/hr 0.00 in0.0 mm
02:26 PM 87.5°F30.8°C 41.6°F5.3°C 20% 8.9 mph SW14.3 kmh SW 15.9 mph25.6 kmh 29.96 in1014.6 mb 0.00 in0.0 mm 0.00 in/hr0.0 mm/hr 0.00 in0.0 mm
02:21 PM 87.3°F30.7°C 39.7°F4.3°C 19% 12.4 mph SW20.0 kmh SW 18.6 mph29.9 kmh 29.96 in1014.6 mb 0.00 in0.0 mm 0.00 in/hr0.0 mm/hr 0.00 in0.0 mm
02:17 PM 87.5°F30.8°C 38.2°F3.4°C 18% 16.5 mph WSW26.6 kmh WSW 18.6 mph29.9 kmh 29.96 in1014.6 mb 0.00 in0.0 mm 0.00 in/hr0.0 mm/hr 0.00 in0.0 mm
02:12 PM 87.8°F31.0°C 40.2°F4.6°C 19% 15.3 mph SW24.6 kmh SW 16.8 mph27.0 kmh 29.96 in1014.6 mb 0.00 in0.0 mm 0.00 in/hr0.0 mm/hr 0.00 in0.0 mm
02:07 PM 87.8°F31.0°C 40.2°F4.6°C 19% 9.9 mph SW15.9 kmh SW 16.3 mph26.2 kmh 29.96 in1014.6 mb 0.00 in0.0 mm 0.00 in/hr0.0 mm/hr 0.00 in0.0 mm
02:02 PM 88.0°F31.1°C 43.1°F6.2°C 21% 13.4 mph SSW21.6 kmh SSW 16.3 mph26.2 kmh 29.97 in1014.9 mb 0.00 in0.0 mm 0.00 in/hr0.0 mm/hr 0.00 in0.0 mm
01:56 PM 87.5°F30.8°C 42.7°F5.9°C 21% 7.3 mph S11.7 kmh S 19.5 mph31.4 kmh 29.97 in1014.9 mb 0.00 in0.0 mm 0.00 in/hr0.0 mm/hr 0.00 in0.0 mm
01:52 PM 87.8°F31.0°C 38.5°F3.6°C 18% 14.3 mph SW23.0 kmh SW 19.5 mph31.4 kmh 29.97 in1014.9 mb 0.00 in0.0 mm 0.00 in/hr0.0 mm/hr 0.00 in0.0 mm
01:47 PM 88.9°F31.6°C 44.9°F7.2°C 22% 10.4 mph S16.7 kmh S 13.6 mph21.9 kmh 29.97 in1014.9 mb 0.00 in0.0 mm 0.00 in/hr0.0 mm/hr 0.00 in0.0 mm
01:42 PM 88.9°F31.6°C 43.9°F6.6°C 21% 8.5 mph SW13.7 kmh SW 13.6 mph21.9 kmh 29.98 in1015.2 mb 0.00 in0.0 mm 0.00 in/hr0.0 mm/hr 0.00 in0.0 mm
01:37 PM 89.1°F31.7°C 46.2°F7.9°C 23% 9.4 mph SW15.1 kmh SW 11.6 mph18.7 kmh 29.98 in1015.2 mb 0.00 in0.0 mm 0.00 in/hr0.0 mm/hr 0.00 in0.0 mm
01:32 PM 88.7°F31.5°C 45.9°F7.7°C 23% 6.8 mph SSW10.9 kmh SSW 11.4 mph18.3 kmh 29.98 in1015.2 mb 0.00 in0.0 mm 0.00 in/hr0.0 mm/hr 0.00 in0.0 mm
01:27 PM 88.6°F31.4°C 45.7°F7.6°C 23% 4.1 mph SSW6.6 kmh SSW 13.9 mph22.4 kmh 29.98 in1015.2 mb 0.00 in0.0 mm 0.00 in/hr0.0 mm/hr 0.00 in0.0 mm
01:22 PM 88.2°F31.2°C 44.4°F6.9°C 22% 12.0 mph SW19.3 kmh SW 13.9 mph22.4 kmh 29.98 in1015.2 mb 0.00 in0.0 mm 0.00 in/hr0.0 mm/hr 0.00 in0.0 mm
01:17 PM 88.2°F31.2°C 45.5°F7.5°C 23% 7.2 mph SSW11.6 kmh SSW 12.1 mph19.5 kmh 29.98 in1015.2 mb 0.00 in0.0 mm 0.00 in/hr0.0 mm/hr 0.00 in0.0 mm
01:12 PM 88.0°F31.1°C 45.3°F7.4°C 23% 7.4 mph SSW11.9 kmh SSW 9.8 mph15.8 kmh 29.99 in1015.6 mb 0.00 in0.0 mm 0.00 in/hr0.0 mm/hr 0.00 in0.0 mm
01:07 PM 87.8°F31.0°C 44.1°F6.7°C 22% 7.9 mph SW12.7 kmh SW 13.9 mph22.4 kmh 29.99 in1015.6 mb 0.00 in0.0 mm 0.00 in/hr0.0 mm/hr 0.00 in0.0 mm
01:02 PM 87.7°F30.9°C 45.0°F7.2°C 23% 4.3 mph SW6.9 kmh SW 13.9 mph22.4 kmh 29.99 in1015.6 mb 0.00 in0.0 mm 0.00 in/hr0.0 mm/hr 0.00 in0.0 mm
12:56 PM 87.1°F30.6°C 45.5°F7.5°C 24% 4.4 mph SE7.1 kmh SE 12.8 mph20.6 kmh 29.99 in1015.6 mb 0.00 in0.0 mm 0.00 in/hr0.0 mm/hr 0.00 in0.0 mm
12:51 PM 86.6°F30.3°C 44.0°F6.7°C 23% 8.4 mph S13.5 kmh S 12.8 mph20.6 kmh 29.99 in1015.6 mb 0.00 in0.0 mm 0.00 in/hr0.0 mm/hr 0.00 in0.0 mm
12:46 PM 86.0°F30.0°C 43.6°F6.4°C 23% 7.3 mph SW11.7 kmh SW 11.0 mph17.7 kmh 29.99 in1015.6 mb 0.00 in0.0 mm 0.00 in/hr0.0 mm/hr 0.00 in0.0 mm
12:41 PM 86.0°F30.0°C 44.6°F7.0°C 24% 5.7 mph S9.2 kmh S 13.2 mph21.2 kmh 29.99 in1015.6 mb 0.00 in0.0 mm 0.00 in/hr0.0 mm/hr 0.00 in0.0 mm
12:36 PM 85.7°F29.8°C 43.3°F6.3°C 23% 10.9 mph SW17.5 kmh SW 15.2 mph24.5 kmh 30.00 in1015.9 mb 0.00 in0.0 mm 0.00 in/hr0.0 mm/hr 0.00 in0.0 mm
12:31 PM 85.7°F29.8°C 44.4°F6.9°C 24% 12.9 mph SSW20.8 kmh SSW 15.2 mph24.5 kmh 30.00 in1015.9 mb 0.00 in0.0 mm 0.00 in/hr0.0 mm/hr 0.00 in0.0 mm
12:27 PM 85.7°F29.8°C 44.4°F6.9°C 24% 10.6 mph SSW17.1 kmh SSW 14.1 mph22.7 kmh 30.00 in1015.9 mb 0.00 in0.0 mm 0.00 in/hr0.0 mm/hr 0.00 in0.0 mm
12:22 PM 85.5°F29.7°C 45.3°F7.4°C 25% 8.4 mph SSW13.5 kmh SSW 11.6 mph18.7 kmh 30.00 in1015.9 mb 0.00 in0.0 mm 0.00 in/hr0.0 mm/hr 0.00 in0.0 mm
12:17 PM 85.5°F29.7°C 45.3°F7.4°C 25% 7.5 mph S12.1 kmh S 11.4 mph18.3 kmh 30.01 in1016.3 mb 0.00 in0.0 mm 0.00 in/hr0.0 mm/hr 0.00 in0.0 mm
12:12 PM 86.0°F30.0°C 45.7°F7.6°C 25% 10.1 mph SSW16.3 kmh SSW 11.4 mph18.3 kmh 30.01 in1016.3 mb 0.00 in0.0 mm 0.00 in/hr0.0 mm/hr 0.00 in0.0 mm
12:07 PM 86.0°F30.0°C 46.8°F8.2°C 26% 9.4 mph S15.1 kmh S 11.4 mph18.3 kmh 30.01 in1016.3 mb 0.00 in0.0 mm 0.00 in/hr0.0 mm/hr 0.00 in0.0 mm
12:02 PM 85.5°F29.7°C 48.5°F9.2°C 28% 3.4 mph SW5.5 kmh SW 7.8 mph12.6 kmh 30.01 in1016.3 mb 0.00 in0.0 mm 0.00 in/hr0.0 mm/hr 0.00 in0.0 mm
11:56 AM 84.6°F29.2°C 48.8°F9.3°C 29% 4.0 mph SW6.4 kmh SW 7.8 mph12.6 kmh 30.01 in1016.3 mb 0.00 in0.0 mm 0.00 in/hr0.0 mm/hr 0.00 in0.0 mm
11:51 AM 83.5°F28.6°C 48.9°F9.4°C 30% 3.5 mph SE5.6 kmh SE 7.4 mph11.9 kmh 30.02 in1016.6 mb 0.00 in0.0 mm 0.00 in/hr0.0 mm/hr 0.00 in0.0 mm
11:46 AM 83.2°F28.4°C 47.5°F8.6°C 29% 5.3 mph SW8.5 kmh SW 7.4 mph11.9 kmh 30.02 in1016.6 mb 0.00 in0.0 mm 0.00 in/hr0.0 mm/hr 0.00 in0.0 mm
11:41 AM 83.2°F28.4°C 50.1°F10.1°C 32% 1.5 mph ESE2.4 kmh ESE 4.0 mph6.4 kmh 30.02 in1016.6 mb 0.00 in0.0 mm 0.00 in/hr0.0 mm/hr 0.00 in0.0 mm
11:36 AM 82.8°F28.2°C 49.0°F9.4°C 31% 1.6 mph ENE2.6 kmh ENE 5.4 mph8.7 kmh 30.02 in1016.6 mb 0.00 in0.0 mm 0.00 in/hr0.0 mm/hr 0.00 in0.0 mm
11:31 AM 82.1°F27.8°C 49.1°F9.5°C 32% 4.5 mph E7.2 kmh E 5.4 mph8.7 kmh 30.02 in1016.6 mb 0.00 in0.0 mm 0.00 in/hr0.0 mm/hr 0.00 in0.0 mm
11:26 AM 80.8°F27.1°C 48.9°F9.4°C 33% 1.7 mph S2.7 kmh S 3.4 mph5.5 kmh 30.02 in1016.6 mb 0.00 in0.0 mm 0.00 in/hr0.0 mm/hr 0.00 in0.0 mm
11:21 AM 79.9°F26.6°C 48.2°F9.0°C 33% 0.4 mph SW0.6 kmh SW 4.7 mph7.6 kmh 30.02 in1016.6 mb 0.00 in0.0 mm 0.00 in/hr0.0 mm/hr 0.00 in0.0 mm
11:16 AM 78.8°F26.0°C 47.9°F8.8°C 34% 1.5 mph SSE2.4 kmh SSE 4.7 mph7.6 kmh 30.03 in1016.9 mb 0.00 in0.0 mm 0.00 in/hr0.0 mm/hr 0.00 in0.0 mm
11:11 AM 77.8°F25.4°C 47.0°F8.3°C 34% 1.3 mph SE2.1 kmh SE 5.1 mph8.2 kmh 30.03 in1016.9 mb 0.00 in0.0 mm 0.00 in/hr0.0 mm/hr 0.00 in0.0 mm
11:06 AM 77.8°F25.4°C 46.3°F7.9°C 33% 2.5 mph NW4.0 kmh NW 5.1 mph8.2 kmh 30.03 in1016.9 mb 0.00 in0.0 mm 0.00 in/hr0.0 mm/hr 0.00 in0.0 mm
11:01 AM 77.9°F25.5°C 48.0°F8.9°C 35% 1.8 mph WSW2.9 kmh WSW 3.8 mph6.1 kmh 30.03 in1016.9 mb 0.00 in0.0 mm 0.00 in/hr0.0 mm/hr 0.00 in0.0 mm
10:56 AM 77.4°F25.2°C 49.0°F9.4°C 37% 1.8 mph ESE2.9 kmh ESE 4.3 mph6.9 kmh 30.04 in1017.3 mb 0.00 in0.0 mm 0.00 in/hr0.0 mm/hr 0.00 in0.0 mm
10:51 AM 76.3°F24.6°C 48.8°F9.3°C 38% 4.1 mph SE6.6 kmh SE 4.3 mph6.9 kmh 30.04 in1017.3 mb 0.00 in0.0 mm 0.00 in/hr0.0 mm/hr 0.00 in0.0 mm
10:46 AM 75.4°F24.1°C 48.0°F8.9°C 38% 2.3 mph SSE3.7 kmh SSE 2.7 mph4.3 kmh 30.04 in1017.3 mb 0.00 in0.0 mm 0.00 in/hr0.0 mm/hr 0.00 in0.0 mm
10:41 AM 74.5°F23.6°C 46.5°F8.1°C 37% 0.2 mph 0.3 kmh 1.6 mph2.6 kmh 30.04 in1017.3 mb 0.00 in0.0 mm 0.00 in/hr0.0 mm/hr 0.00 in0.0 mm
10:36 AM 74.2°F23.4°C 46.8°F8.2°C 38% 0.9 mph WNW1.4 kmh WNW 1.8 mph2.9 kmh 30.04 in1017.3 mb 0.00 in0.0 mm 0.00 in/hr0.0 mm/hr 0.00 in0.0 mm
10:31 AM 73.6°F23.1°C 47.9°F8.8°C 40% 0.8 mph SE1.3 kmh SE 3.1 mph5.0 kmh 30.04 in1017.3 mb 0.00 in0.0 mm 0.00 in/hr0.0 mm/hr 0.00 in0.0 mm
10:26 AM 73.1°F22.8°C 48.0°F8.9°C 41% 2.3 mph ESE3.7 kmh ESE 3.1 mph5.0 kmh 30.04 in1017.3 mb 0.00 in0.0 mm 0.00 in/hr0.0 mm/hr 0.00 in0.0 mm
10:21 AM 72.5°F22.5°C 47.5°F8.6°C 41% 0.4 mph S0.6 kmh S 4.0 mph6.4 kmh 30.04 in1017.3 mb 0.00 in0.0 mm 0.00 in/hr0.0 mm/hr 0.00 in0.0 mm
10:16 AM 72.0°F22.2°C 47.6°F8.7°C 42% 2.8 mph SSW4.5 kmh SSW 4.0 mph6.4 kmh 30.05 in1017.6 mb 0.00 in0.0 mm 0.00 in/hr0.0 mm/hr 0.00 in0.0 mm
10:11 AM 71.1°F21.7°C 47.3°F8.5°C 43% 1.4 mph SE2.3 kmh SE 2.2 mph3.5 kmh 30.05 in1017.6 mb 0.00 in0.0 mm 0.00 in/hr0.0 mm/hr 0.00 in0.0 mm
10:06 AM 70.0°F21.1°C 45.8°F7.7°C 42% 1.5 mph SE2.4 kmh SE 3.6 mph5.8 kmh 30.05 in1017.6 mb 0.00 in0.0 mm 0.00 in/hr0.0 mm/hr 0.00 in0.0 mm
10:01 AM 69.1°F20.6°C 46.2°F7.9°C 44% 2.8 mph E4.5 kmh E 4.5 mph7.2 kmh 30.06 in1017.9 mb 0.00 in0.0 mm 0.00 in/hr0.0 mm/hr 0.00 in0.0 mm
09:55 AM 68.4°F20.2°C 44.9°F7.2°C 43% 2.6 mph E4.2 kmh E 4.5 mph7.2 kmh 30.06 in1017.9 mb 0.00 in0.0 mm 0.00 in/hr0.0 mm/hr 0.00 in0.0 mm
09:51 AM 68.0°F20.0°C 44.7°F7.1°C 43% 3.5 mph E5.6 kmh E 4.9 mph7.9 kmh 30.06 in1017.9 mb 0.00 in0.0 mm 0.00 in/hr0.0 mm/hr 0.00 in0.0 mm
09:46 AM 67.3°F19.6°C 44.0°F6.7°C 43% 3.4 mph NE5.5 kmh NE 5.1 mph8.2 kmh 30.06 in1017.9 mb 0.00 in0.0 mm 0.00 in/hr0.0 mm/hr 0.00 in0.0 mm
09:41 AM 67.0°F19.4°C 44.3°F6.8°C 44% 4.9 mph E7.9 kmh E 5.1 mph8.2 kmh 30.06 in1017.9 mb 0.00 in0.0 mm 0.00 in/hr0.0 mm/hr 0.00 in0.0 mm
09:36 AM 66.4°F19.1°C 44.4°F6.9°C 45% 2.5 mph ESE4.0 kmh ESE 4.0 mph6.4 kmh 30.06 in1017.9 mb 0.00 in0.0 mm 0.00 in/hr0.0 mm/hr 0.00 in0.0 mm
09:31 AM 65.7°F18.7°C 44.3°F6.8°C 46% 3.3 mph E5.3 kmh E 4.3 mph6.9 kmh 30.06 in1017.9 mb 0.00 in0.0 mm 0.00 in/hr0.0 mm/hr 0.00 in0.0 mm
09:26 AM 65.0°F18.3°C 44.2°F6.8°C 47% 2.7 mph ESE4.3 kmh ESE 4.3 mph6.9 kmh 30.06 in1017.9 mb 0.00 in0.0 mm 0.00 in/hr0.0 mm/hr 0.00 in0.0 mm
09:21 AM 64.1°F17.8°C 43.3°F6.3°C 47% 2.2 mph ESE3.5 kmh ESE 3.4 mph5.5 kmh 30.06 in1017.9 mb 0.00 in0.0 mm 0.00 in/hr0.0 mm/hr 0.00 in0.0 mm
09:16 AM 63.5°F17.5°C 42.9°F6.1°C 47% 1.9 mph SE3.1 kmh SE 5.1 mph8.2 kmh 30.06 in1017.9 mb 0.00 in0.0 mm 0.00 in/hr0.0 mm/hr 0.00 in0.0 mm
09:11 AM 63.0°F17.2°C 41.8°F5.4°C 46% 2.8 mph E4.5 kmh E 5.1 mph8.2 kmh 30.06 in1017.9 mb 0.00 in0.0 mm 0.00 in/hr0.0 mm/hr 0.00 in0.0 mm
09:06 AM 62.8°F17.1°C 42.8°F6.0°C 48% 2.7 mph E4.3 kmh E 4.7 mph7.6 kmh 30.07 in1018.3 mb 0.00 in0.0 mm 0.00 in/hr0.0 mm/hr 0.00 in0.0 mm
09:01 AM 62.1°F16.7°C 42.1°F5.6°C 48% 1.6 mph NE2.6 kmh NE 4.5 mph7.2 kmh 30.07 in1018.3 mb 0.00 in0.0 mm 0.00 in/hr0.0 mm/hr 0.00 in0.0 mm
08:55 AM 61.4°F16.3°C 42.6°F5.9°C 50% 2.5 mph NNE4.0 kmh NNE 4.5 mph7.2 kmh 30.07 in1018.3 mb 0.00 in0.0 mm 0.00 in/hr0.0 mm/hr 0.00 in0.0 mm
08:50 AM 60.7°F15.9°C 42.5°F5.8°C 51% 1.6 mph SE2.6 kmh SE 3.8 mph6.1 kmh 30.07 in1018.3 mb 0.00 in0.0 mm 0.00 in/hr0.0 mm/hr 0.00 in0.0 mm
08:45 AM 59.9°F15.5°C 41.8°F5.4°C 51% 3.6 mph ESE5.8 kmh ESE 3.8 mph6.1 kmh 30.07 in1018.3 mb 0.00 in0.0 mm 0.00 in/hr0.0 mm/hr 0.00 in0.0 mm
08:40 AM 59.2°F15.1°C 41.6°F5.3°C 52% 0.8 mph E1.3 kmh E 4.0 mph6.4 kmh 30.07 in1018.3 mb 0.00 in0.0 mm 0.00 in/hr0.0 mm/hr 0.00 in0.0 mm
08:35 AM 58.3°F14.6°C 41.2°F5.1°C 53% 2.5 mph ESE4.0 kmh ESE 4.0 mph6.4 kmh 30.07 in1018.3 mb 0.00 in0.0 mm 0.00 in/hr0.0 mm/hr 0.00 in0.0 mm
08:30 AM 57.6°F14.2°C 41.0°F5.0°C 54% 1.2 mph E1.9 kmh E 3.4 mph5.5 kmh 30.07 in1018.3 mb 0.00 in0.0 mm 0.00 in/hr0.0 mm/hr 0.00 in0.0 mm
08:26 AM 57.1°F13.9°C 40.6°F4.8°C 54% 2.3 mph E3.7 kmh E 3.4 mph5.5 kmh 30.07 in1018.3 mb 0.00 in0.0 mm 0.00 in/hr0.0 mm/hr 0.00 in0.0 mm
08:21 AM 56.0°F13.3°C 39.5°F4.2°C 54% 1.5 mph E2.4 kmh E 2.7 mph4.3 kmh 30.07 in1018.3 mb 0.00 in0.0 mm 0.00 in/hr0.0 mm/hr 0.00 in0.0 mm
08:16 AM 55.3°F12.9°C 39.2°F4.0°C 55% 2.2 mph NE3.5 kmh NE 2.7 mph4.3 kmh 30.07 in1018.3 mb 0.00 in0.0 mm 0.00 in/hr0.0 mm/hr 0.00 in0.0 mm
08:11 AM 54.4°F12.4°C 39.9°F4.4°C 58% 2.0 mph E3.2 kmh E 2.7 mph4.3 kmh 30.07 in1018.3 mb 0.00 in0.0 mm 0.00 in/hr0.0 mm/hr 0.00 in0.0 mm
08:06 AM 53.5°F11.9°C 39.5°F4.2°C 59% 1.2 mph E1.9 kmh E 3.4 mph5.5 kmh 30.07 in1018.3 mb 0.00 in0.0 mm 0.00 in/hr0.0 mm/hr 0.00 in0.0 mm
08:01 AM 52.4°F11.3°C 38.9°F3.8°C 60% 2.8 mph SE4.5 kmh SE 3.4 mph5.5 kmh 30.07 in1018.3 mb 0.00 in0.0 mm 0.00 in/hr0.0 mm/hr 0.00 in0.0 mm
07:55 AM 51.3°F10.7°C 37.9°F3.3°C 60% 1.0 mph ESE1.6 kmh ESE 1.1 mph1.8 kmh 30.07 in1018.3 mb 0.00 in0.0 mm 0.00 in/hr0.0 mm/hr 0.00 in0.0 mm
07:50 AM 50.2°F10.1°C 36.9°F2.7°C 60% 0.7 mph E1.1 kmh E 1.1 mph1.8 kmh 30.07 in1018.3 mb 0.00 in0.0 mm 0.00 in/hr0.0 mm/hr 0.00 in0.0 mm
07:45 AM 49.3°F9.6°C 36.1°F2.3°C 60% Calm Calm 0.7 mph1.1 kmh 30.07 in1018.3 mb 0.00 in0.0 mm 0.00 in/hr0.0 mm/hr 0.00 in0.0 mm
07:40 AM 48.4°F9.1°C 35.6°F2.0°C 61% 0.2 mph NW0.3 kmh NW 1.3 mph2.1 kmh 30.07 in1018.3 mb 0.00 in0.0 mm 0.00 in/hr0.0 mm/hr 0.00 in0.0 mm
07:35 AM 47.3°F8.5°C 34.6°F1.4°C 61% 0.8 mph NW1.3 kmh NW 1.3 mph2.1 kmh 30.07 in1018.3 mb 0.00 in0.0 mm 0.00 in/hr0.0 mm/hr 0.00 in0.0 mm
07:30 AM 46.4°F8.0°C 34.1°F1.2°C 62% 0.7 mph NNW1.1 kmh NNW 1.1 mph1.8 kmh 30.07 in1018.3 mb 0.00 in0.0 mm 0.00 in/hr0.0 mm/hr 0.00 in0.0 mm
07:25 AM 45.5°F7.5°C 33.7°F0.9°C 63% 0.6 mph NW1.0 kmh NW 1.3 mph2.1 kmh 30.07 in1018.3 mb 0.00 in0.0 mm 0.00 in/hr0.0 mm/hr 0.00 in0.0 mm
07:20 AM 44.6°F7.0°C 32.9°F0.5°C 63% 0.6 mph NNW1.0 kmh NNW 1.3 mph2.1 kmh 30.07 in1018.3 mb 0.00 in0.0 mm 0.00 in/hr0.0 mm/hr 0.00 in0.0 mm
07:15 AM 43.9°F6.6°C 32.5°F0.3°C 64% 0.7 mph 1.1 kmh 0.7 mph1.1 kmh 30.07 in1018.3 mb 0.00 in0.0 mm 0.00 in/hr0.0 mm/hr 0.00 in0.0 mm
07:10 AM 43.4°F6.3°C 32.0°F0.0°C 64% 0.2 mph 0.3 kmh 0.2 mph0.3 kmh 30.08 in1018.6 mb 0.00 in0.0 mm 0.00 in/hr0.0 mm/hr 0.00 in0.0 mm
07:05 AM 42.7°F5.9°C 31.3°F-0.4°C 64% Calm Calm 0.9 mph1.4 kmh 30.08 in1018.6 mb 0.00 in0.0 mm 0.00 in/hr0.0 mm/hr 0.00 in0.0 mm
07:01 AM 42.3°F5.7°C 31.0°F-0.6°C 64% 0.2 mph 0.3 kmh 2.0 mph3.2 kmh 30.08 in1018.6 mb 0.00 in0.0 mm 0.00 in/hr0.0 mm/hr 0.00 in0.0 mm
06:55 AM 41.6°F5.3°C 30.2°F-1.0°C 64% 1.3 mph 2.1 kmh 2.0 mph3.2 kmh 30.08 in1018.6 mb 0.00 in0.0 mm 0.00 in/hr0.0 mm/hr 0.00 in0.0 mm
06:50 AM 41.0°F5.0°C 30.2°F-1.0°C 65% 1.5 mph 2.4 kmh 1.6 mph2.6 kmh 30.07 in1018.3 mb 0.00 in0.0 mm 0.00 in/hr0.0 mm/hr 0.00 in0.0 mm
06:45 AM 40.3°F4.6°C 29.4°F-1.4°C 65% 0.7 mph NE1.1 kmh NE 1.1 mph1.8 kmh 30.07 in1018.3 mb 0.00 in0.0 mm 0.00 in/hr0.0 mm/hr 0.00 in0.0 mm
06:40 AM 40.3°F4.6°C 29.4°F-1.4°C 65% Calm Calm 0.9 mph1.4 kmh 30.07 in1018.3 mb 0.00 in0.0 mm 0.00 in/hr0.0 mm/hr 0.00 in0.0 mm
06:35 AM 40.3°F4.6°C 29.1°F-1.6°C 64% 0.2 mph 0.3 kmh 0.9 mph1.4 kmh 30.07 in1018.3 mb 0.00 in0.0 mm 0.00 in/hr0.0 mm/hr 0.00 in0.0 mm
06:30 AM 40.3°F4.6°C 29.4°F-1.4°C 65% 0.4 mph 0.6 kmh 0.4 mph0.6 kmh 30.07 in1018.3 mb 0.00 in0.0 mm 0.00 in/hr0.0 mm/hr 0.00 in0.0 mm
06:25 AM 40.1°F4.5°C 29.6°F-1.3°C 66% 0.2 mph NE0.3 kmh NE 1.3 mph2.1 kmh 30.07 in1018.3 mb 0.00 in0.0 mm 0.00 in/hr0.0 mm/hr 0.00 in0.0 mm
06:20 AM 40.0°F4.4°C 29.1°F-1.6°C 65% 0.2 mph NE0.3 kmh NE 1.3 mph2.1 kmh 30.07 in1018.3 mb 0.00 in0.0 mm 0.00 in/hr0.0 mm/hr 0.00 in0.0 mm
06:15 AM 40.0°F4.4°C 28.4°F-2.0°C 63% 1.0 mph ENE1.6 kmh ENE 1.8 mph2.9 kmh 30.07 in1018.3 mb 0.00 in0.0 mm 0.00 in/hr0.0 mm/hr 0.00 in0.0 mm
06:10 AM 40.0°F4.4°C 29.4°F-1.4°C 66% 1.5 mph E2.4 kmh E 1.8 mph2.9 kmh 30.07 in1018.3 mb 0.00 in0.0 mm 0.00 in/hr0.0 mm/hr 0.00 in0.0 mm
06:05 AM 40.3°F4.6°C 29.1°F-1.6°C 64% Calm Calm 0.2 mph0.3 kmh 30.07 in1018.3 mb 0.00 in0.0 mm 0.00 in/hr0.0 mm/hr 0.00 in0.0 mm
06:00 AM 40.3°F4.6°C 28.7°F-1.8°C 63% Calm Calm 0.4 mph0.6 kmh 30.07 in1018.3 mb 0.00 in0.0 mm 0.00 in/hr0.0 mm/hr 0.00 in0.0 mm
05:55 AM 40.5°F4.7°C 28.4°F-2.0°C 62% Calm Calm 1.3 mph2.1 kmh 30.07 in1018.3 mb 0.00 in0.0 mm 0.00 in/hr0.0 mm/hr 0.00 in0.0 mm
05:50 AM 40.7°F4.8°C 28.3°F-2.1°C 61% 0.4 mph 0.6 kmh 1.3 mph2.1 kmh 30.06 in1017.9 mb 0.00 in0.0 mm 0.00 in/hr0.0 mm/hr 0.00 in0.0 mm
05:45 AM 40.9°F4.9°C 28.8°F-1.8°C 62% 0.4 mph 0.6 kmh 0.4 mph0.6 kmh 30.06 in1017.9 mb 0.00 in0.0 mm 0.00 in/hr0.0 mm/hr 0.00 in0.0 mm
05:40 AM 41.0°F5.0°C 28.6°F-1.9°C 61% 0.2 mph 0.3 kmh 2.7 mph4.3 kmh 30.06 in1017.9 mb 0.00 in0.0 mm 0.00 in/hr0.0 mm/hr 0.00 in0.0 mm
05:35 AM 41.4°F5.2°C 28.6°F-1.9°C 60% 0.8 mph 1.3 kmh 2.7 mph4.3 kmh 30.06 in1017.9 mb 0.00 in0.0 mm 0.00 in/hr0.0 mm/hr 0.00 in0.0 mm
05:30 AM 42.1°F5.6°C 29.6°F-1.3°C 61% 0.6 mph N1.0 kmh N 2.5 mph4.0 kmh 30.06 in1017.9 mb 0.00 in0.0 mm 0.00 in/hr0.0 mm/hr 0.00 in0.0 mm
05:25 AM 42.5°F5.8°C 30.3°F-0.9°C 62% 0.8 mph NNE1.3 kmh NNE 3.4 mph5.5 kmh 30.06 in1017.9 mb 0.00 in0.0 mm 0.00 in/hr0.0 mm/hr 0.00 in0.0 mm
05:20 AM 42.7°F5.9°C 30.2°F-1.0°C 61% 3.1 mph NNE5.0 kmh NNE 3.4 mph5.5 kmh 30.06 in1017.9 mb 0.00 in0.0 mm 0.00 in/hr0.0 mm/hr 0.00 in0.0 mm
05:15 AM 42.8°F6.0°C 30.7°F-0.7°C 62% 1.5 mph NNE2.4 kmh NNE 3.4 mph5.5 kmh 30.06 in1017.9 mb 0.00 in0.0 mm 0.00 in/hr0.0 mm/hr 0.00 in0.0 mm
05:10 AM 42.8°F6.0°C 30.7°F-0.7°C 62% 3.1 mph NNE5.0 kmh NNE 3.1 mph5.0 kmh 30.06 in1017.9 mb 0.00 in0.0 mm 0.00 in/hr0.0 mm/hr 0.00 in0.0 mm
05:05 AM 42.8°F6.0°C 29.4°F-1.4°C 59% 1.9 mph NNE3.1 kmh NNE 2.2 mph3.5 kmh 30.06 in1017.9 mb 0.00 in0.0 mm 0.00 in/hr0.0 mm/hr 0.00 in0.0 mm
05:00 AM 43.2°F6.2°C 29.3°F-1.5°C 58% Calm Calm 0.4 mph0.6 kmh 30.06 in1017.9 mb 0.00 in0.0 mm 0.00 in/hr0.0 mm/hr 0.00 in0.0 mm
04:54 AM 43.9°F6.6°C 30.5°F-0.8°C 59% Calm Calm 0.9 mph1.4 kmh 30.06 in1017.9 mb 0.00 in0.0 mm 0.00 in/hr0.0 mm/hr 0.00 in0.0 mm
04:50 AM 44.3°F6.8°C 30.9°F-0.6°C 59% 0.6 mph ENE1.0 kmh ENE 1.1 mph1.8 kmh 30.06 in1017.9 mb 0.00 in0.0 mm 0.00 in/hr0.0 mm/hr 0.00 in0.0 mm
04:45 AM 44.5°F6.9°C 31.5°F-0.3°C 60% 0.4 mph NE0.6 kmh NE 4.0 mph6.4 kmh 30.06 in1017.9 mb 0.00 in0.0 mm 0.00 in/hr0.0 mm/hr 0.00 in0.0 mm
04:40 AM 44.3°F6.8°C 30.4°F-0.9°C 58% 1.8 mph NNE2.9 kmh NNE 4.0 mph6.4 kmh 30.06 in1017.9 mb 0.00 in0.0 mm 0.00 in/hr0.0 mm/hr 0.00 in0.0 mm
04:35 AM 44.6°F7.0°C 30.8°F-0.7°C 58% 2.2 mph NNE3.5 kmh NNE 3.1 mph5.0 kmh 30.05 in1017.6 mb 0.00 in0.0 mm 0.00 in/hr0.0 mm/hr 0.00 in0.0 mm
04:30 AM 44.6°F7.0°C 30.8°F-0.7°C 58% 0.4 mph NNE0.6 kmh NNE 1.3 mph2.1 kmh 30.05 in1017.6 mb 0.00 in0.0 mm 0.00 in/hr0.0 mm/hr 0.00 in0.0 mm
04:25 AM 44.6°F7.0°C 30.3°F-0.9°C 57% 1.0 mph NNE1.6 kmh NNE 1.1 mph1.8 kmh 30.05 in1017.6 mb 0.00 in0.0 mm 0.00 in/hr0.0 mm/hr 0.00 in0.0 mm
04:20 AM 44.6°F7.0°C 30.3°F-0.9°C 57% 0.7 mph NNE1.1 kmh NNE 0.7 mph1.1 kmh 30.05 in1017.6 mb 0.00 in0.0 mm 0.00 in/hr0.0 mm/hr 0.00 in0.0 mm
04:15 AM 45.0°F7.2°C 30.7°F-0.7°C 57% 0.2 mph NNE0.3 kmh NNE 0.4 mph0.6 kmh 30.05 in1017.6 mb 0.00 in0.0 mm 0.00 in/hr0.0 mm/hr 0.00 in0.0 mm
04:10 AM 45.0°F7.2°C 30.7°F-0.7°C 57% Calm Calm 0.9 mph1.4 kmh 30.06 in1017.9 mb 0.00 in0.0 mm 0.00 in/hr0.0 mm/hr 0.00 in0.0 mm
04:05 AM 45.0°F7.2°C 30.7°F-0.7°C 57% 0.6 mph NNE1.0 kmh NNE 0.9 mph1.4 kmh 30.05 in1017.6 mb 0.00 in0.0 mm 0.00 in/hr0.0 mm/hr 0.00 in0.0 mm
04:00 AM 45.2°F7.3°C 30.8°F-0.7°C 57% 0.8 mph NNE1.3 kmh NNE 0.9 mph1.4 kmh 30.06 in1017.9 mb 0.00 in0.0 mm 0.00 in/hr0.0 mm/hr 0.00 in0.0 mm
03:54 AM 45.2°F7.3°C 30.8°F-0.7°C 57% 0.4 mph NNE0.6 kmh NNE 2.0 mph3.2 kmh 30.06 in1017.9 mb 0.00 in0.0 mm 0.00 in/hr0.0 mm/hr 0.00 in0.0 mm
03:49 AM 45.2°F7.3°C 30.8°F-0.7°C 57% 0.7 mph 1.1 kmh 2.2 mph3.5 kmh 30.06 in1017.9 mb 0.00 in0.0 mm 0.00 in/hr0.0 mm/hr 0.00 in0.0 mm
03:44 AM 45.4°F7.4°C 30.5°F-0.8°C 56% 1.8 mph 2.9 kmh 2.2 mph3.5 kmh 30.06 in1017.9 mb 0.00 in0.0 mm 0.00 in/hr0.0 mm/hr 0.00 in0.0 mm
03:39 AM 45.4°F7.4°C 30.1°F-1.1°C 55% 1.2 mph NNE1.9 kmh NNE 1.8 mph2.9 kmh 30.05 in1017.6 mb 0.00 in0.0 mm 0.00 in/hr0.0 mm/hr 0.00 in0.0 mm
03:34 AM 45.5°F7.5°C 30.2°F-1.0°C 55% 0.9 mph 1.4 kmh 2.5 mph4.0 kmh 30.05 in1017.6 mb 0.00 in0.0 mm 0.00 in/hr0.0 mm/hr 0.00 in0.0 mm
03:29 AM 45.9°F7.7°C 30.6°F-0.8°C 55% 2.2 mph 3.5 kmh 3.1 mph5.0 kmh 30.05 in1017.6 mb 0.00 in0.0 mm 0.00 in/hr0.0 mm/hr 0.00 in0.0 mm
03:24 AM 46.3°F7.9°C 31.8°F-0.1°C 57% 0.8 mph ENE1.3 kmh ENE 4.7 mph7.6 kmh 30.05 in1017.6 mb 0.00 in0.0 mm 0.00 in/hr0.0 mm/hr 0.00 in0.0 mm
03:19 AM 46.3°F7.9°C 31.8°F-0.1°C 57% 3.0 mph E4.8 kmh E 4.7 mph7.6 kmh 30.05 in1017.6 mb 0.00 in0.0 mm 0.00 in/hr0.0 mm/hr 0.00 in0.0 mm
03:14 AM 46.4°F8.0°C 32.0°F0.0°C 57% 3.2 mph E5.1 kmh E 4.7 mph7.6 kmh 30.05 in1017.6 mb 0.00 in0.0 mm 0.00 in/hr0.0 mm/hr 0.00 in0.0 mm
03:10 AM 46.4°F8.0°C 31.5°F-0.3°C 56% 2.5 mph E4.0 kmh E 4.7 mph7.6 kmh 30.05 in1017.6 mb 0.00 in0.0 mm 0.00 in/hr0.0 mm/hr 0.00 in0.0 mm
03:05 AM 46.4°F8.0°C 32.0°F0.0°C 57% 4.3 mph E6.9 kmh E 4.7 mph7.6 kmh 30.05 in1017.6 mb 0.00 in0.0 mm 0.00 in/hr0.0 mm/hr 0.00 in0.0 mm
03:00 AM 46.1°F7.8°C 31.6°F-0.2°C 57% 2.8 mph E4.5 kmh E 5.4 mph8.7 kmh 30.05 in1017.6 mb 0.00 in0.0 mm 0.00 in/hr0.0 mm/hr 0.00 in0.0 mm
02:50 AM 45.7°F7.6°C 31.3°F-0.4°C 57% 5.3 mph E8.5 kmh E 5.4 mph8.7 kmh 30.05 in1017.6 mb 0.00 in0.0 mm 0.00 in/hr0.0 mm/hr 0.00 in0.0 mm
02:45 AM 45.4°F7.4°C 29.6°F-1.3°C 54% 4.0 mph E6.4 kmh E 4.3 mph6.9 kmh 30.05 in1017.6 mb 0.00 in0.0 mm 0.00 in/hr0.0 mm/hr 0.00 in0.0 mm
02:40 AM 45.7°F7.6°C 28.6°F-1.9°C 51% 2.2 mph E3.5 kmh E 2.9 mph4.7 kmh 30.05 in1017.6 mb 0.00 in0.0 mm 0.00 in/hr0.0 mm/hr 0.00 in0.0 mm
02:35 AM 46.1°F7.8°C 27.9°F-2.3°C 49% 1.5 mph E2.4 kmh E 1.8 mph2.9 kmh 30.05 in1017.6 mb 0.00 in0.0 mm 0.00 in/hr0.0 mm/hr 0.00 in0.0 mm
02:30 AM 46.4°F8.0°C 28.3°F-2.1°C 49% 1.0 mph ENE1.6 kmh ENE 1.3 mph2.1 kmh 30.05 in1017.6 mb 0.00 in0.0 mm 0.00 in/hr0.0 mm/hr 0.00 in0.0 mm
02:25 AM 46.4°F8.0°C 27.7°F-2.4°C 48% 0.6 mph NNE1.0 kmh NNE 0.9 mph1.4 kmh 30.05 in1017.6 mb 0.00 in0.0 mm 0.00 in/hr0.0 mm/hr 0.00 in0.0 mm
02:20 AM 46.8°F8.2°C 28.1°F-2.2°C 48% 0.6 mph 1.0 kmh 0.9 mph1.4 kmh 30.04 in1017.3 mb 0.00 in0.0 mm 0.00 in/hr0.0 mm/hr 0.00 in0.0 mm
02:15 AM 47.2°F8.4°C 28.4°F-2.0°C 48% 0.4 mph N0.6 kmh N 0.4 mph0.6 kmh 30.04 in1017.3 mb 0.00 in0.0 mm 0.00 in/hr0.0 mm/hr 0.00 in0.0 mm
02:10 AM 47.9°F8.8°C 28.4°F-2.0°C 47% 0.2 mph 0.3 kmh 0.7 mph1.1 kmh 30.04 in1017.3 mb 0.00 in0.0 mm 0.00 in/hr0.0 mm/hr 0.00 in0.0 mm
02:05 AM 48.2°F9.0°C 28.3°F-2.1°C 46% 0.4 mph 0.6 kmh 2.5 mph4.0 kmh 30.04 in1017.3 mb 0.00 in0.0 mm 0.00 in/hr0.0 mm/hr 0.00 in0.0 mm
02:00 AM 48.8°F9.3°C 29.4°F-1.4°C 47% 1.1 mph E1.8 kmh E 2.5 mph4.0 kmh 30.04 in1017.3 mb 0.00 in0.0 mm 0.00 in/hr0.0 mm/hr 0.00 in0.0 mm
01:55 AM 49.0°F9.4°C 29.0°F-1.7°C 46% 1.6 mph NE2.6 kmh NE 4.0 mph6.4 kmh 30.04 in1017.3 mb 0.00 in0.0 mm 0.00 in/hr0.0 mm/hr 0.00 in0.0 mm
01:50 AM 49.1°F9.5°C 29.2°F-1.6°C 46% 2.3 mph NNE3.7 kmh NNE 4.7 mph7.6 kmh 30.04 in1017.3 mb 0.00 in0.0 mm 0.00 in/hr0.0 mm/hr 0.00 in0.0 mm
01:45 AM 48.8°F9.3°C 28.8°F-1.8°C 46% 4.7 mph NE7.6 kmh NE 4.7 mph7.6 kmh 30.04 in1017.3 mb 0.00 in0.0 mm 0.00 in/hr0.0 mm/hr 0.00 in0.0 mm
01:40 AM 48.6°F9.2°C 28.6°F-1.9°C 46% 3.2 mph NNE5.1 kmh NNE 3.8 mph6.1 kmh 30.04 in1017.3 mb 0.00 in0.0 mm 0.00 in/hr0.0 mm/hr 0.00 in0.0 mm
01:35 AM 48.2°F9.0°C 28.3°F-2.1°C 46% 2.6 mph 4.2 kmh 3.8 mph6.1 kmh 30.04 in1017.3 mb 0.00 in0.0 mm 0.00 in/hr0.0 mm/hr 0.00 in0.0 mm
01:30 AM 47.9°F8.8°C 26.8°F-2.9°C 44% 2.8 mph NNE4.5 kmh NNE 3.1 mph5.0 kmh 30.04 in1017.3 mb 0.00 in0.0 mm 0.00 in/hr0.0 mm/hr 0.00 in0.0 mm
01:25 AM 47.9°F8.8°C 26.8°F-2.9°C 44% 0.4 mph NE0.6 kmh NE 0.7 mph1.1 kmh 30.05 in1017.6 mb 0.00 in0.0 mm 0.00 in/hr0.0 mm/hr 0.00 in0.0 mm
01:20 AM 47.9°F8.8°C 26.8°F-2.9°C 44% Calm Calm 0.7 mph1.1 kmh 30.05 in1017.6 mb 0.00 in0.0 mm 0.00 in/hr0.0 mm/hr 0.00 in0.0 mm
01:15 AM 48.2°F9.0°C 26.6°F-3.0°C 43% Calm Calm 1.3 mph2.1 kmh 30.05 in1017.6 mb 0.00 in0.0 mm 0.00 in/hr0.0 mm/hr 0.00 in0.0 mm
01:10 AM 49.0°F9.4°C 26.7°F-2.9°C 42% 0.8 mph NNW1.3 kmh NNW 1.3 mph2.1 kmh 30.05 in1017.6 mb 0.00 in0.0 mm 0.00 in/hr0.0 mm/hr 0.00 in0.0 mm
01:05 AM 49.5°F9.7°C 27.3°F-2.6°C 42% Calm Calm 1.1 mph1.8 kmh 30.05 in1017.6 mb 0.00 in0.0 mm 0.00 in/hr0.0 mm/hr 0.00 in0.0 mm
01:00 AM 50.0°F10.0°C 27.7°F-2.4°C 42% 0.5 mph NNW0.8 kmh NNW 1.3 mph2.1 kmh 30.05 in1017.6 mb 0.00 in0.0 mm 0.00 in/hr0.0 mm/hr 0.00 in0.0 mm
12:54 AM 50.2°F10.1°C 28.4°F-2.0°C 43% 1.0 mph 1.6 kmh 1.6 mph2.6 kmh 30.05 in1017.6 mb 0.00 in0.0 mm 0.00 in/hr0.0 mm/hr 0.00 in0.0 mm
12:49 AM 50.4°F10.2°C 28.1°F-2.2°C 42% 1.0 mph 1.6 kmh 2.9 mph4.7 kmh 30.05 in1017.6 mb 0.00 in0.0 mm 0.00 in/hr0.0 mm/hr 0.00 in0.0 mm
12:44 AM 50.8°F10.4°C 29.0°F-1.7°C 43% 1.7 mph 2.7 kmh 2.9 mph4.7 kmh 30.06 in1017.9 mb 0.00 in0.0 mm 0.00 in/hr0.0 mm/hr 0.00 in0.0 mm
12:39 AM 50.9°F10.5°C 29.2°F-1.6°C 43% 1.9 mph 3.1 kmh 3.8 mph6.1 kmh 30.05 in1017.6 mb 0.00 in0.0 mm 0.00 in/hr0.0 mm/hr 0.00 in0.0 mm
12:34 AM 51.3°F10.7°C 28.9°F-1.7°C 42% 3.1 mph NNE5.0 kmh NNE 3.8 mph6.1 kmh 30.05 in1017.6 mb 0.00 in0.0 mm 0.00 in/hr0.0 mm/hr 0.00 in0.0 mm
12:29 AM 51.3°F10.7°C 28.9°F-1.7°C 42% 2.8 mph NE4.5 kmh NE 3.4 mph5.5 kmh 30.05 in1017.6 mb 0.00 in0.0 mm 0.00 in/hr0.0 mm/hr 0.00 in0.0 mm
12:25 AM 51.5°F10.8°C 29.1°F-1.6°C 42% 3.3 mph NNE5.3 kmh NNE 3.4 mph5.5 kmh 30.05 in1017.6 mb 0.00 in0.0 mm 0.00 in/hr0.0 mm/hr 0.00 in0.0 mm
12:20 AM 51.7°F10.9°C 29.3°F-1.5°C 42% 2.6 mph ENE4.2 kmh ENE 3.4 mph5.5 kmh 30.05 in1017.6 mb 0.00 in0.0 mm 0.00 in/hr0.0 mm/hr 0.00 in0.0 mm
12:15 AM 52.4°F11.3°C 29.4°F-1.4°C 41% 1.5 mph ESE2.4 kmh ESE 2.5 mph4.0 kmh 30.05 in1017.6 mb 0.00 in0.0 mm 0.00 in/hr0.0 mm/hr 0.00 in0.0 mm
12:10 AM 52.9°F11.6°C 29.8°F-1.2°C 41% 0.7 mph NE1.1 kmh NE 1.8 mph2.9 kmh 30.05 in1017.6 mb 0.00 in0.0 mm 0.00 in/hr0.0 mm/hr 0.00 in0.0 mm
12:05 AM 53.3°F11.8°C 30.2°F-1.0°C 41% 0.6 mph NE1.0 kmh NE 2.5 mph4.0 kmh 30.05 in1017.6 mb 0.00 in0.0 mm 0.00 in/hr0.0 mm/hr 0.00 in0.0 mm
12:00 AM 53.8°F12.1°C 30.6°F-0.8°C 41% 1.8 mph 2.9 kmh 4.5 mph7.2 kmh 30.05 in1017.6 mb 0.00 in0.0 mm 0.00 in/hr0.0 mm/hr 0.00 in0.0 mm